createdAt,value
2017-02-03T01:01:11.187Z,1005.11
2017-02-03T01:02:11.121Z,1005.11
2017-02-03T01:03:11.064Z,1005.1
2017-02-03T01:04:10.995Z,1005.11
2017-02-03T01:05:10.932Z,1005.13
2017-02-03T01:06:10.870Z,1005.11
2017-02-03T01:07:10.806Z,1005.13
2017-02-03T01:08:10.743Z,1005.13
2017-02-03T01:09:10.681Z,1005.09
2017-02-03T01:10:10.624Z,1005.08
2017-02-03T01:11:10.561Z,1005.09
2017-02-03T01:12:10.497Z,1005.13
2017-02-03T01:13:10.434Z,1005.13
2017-02-03T01:14:10.374Z,1005.14
2017-02-03T01:15:10.304Z,1005.17
2017-02-03T01:16:10.242Z,1005.19
2017-02-03T01:17:10.179Z,1005.14
2017-02-03T01:18:10.115Z,1005.13
2017-02-03T01:19:10.053Z,1005.1
2017-02-03T01:20:09.990Z,1005.13
2017-02-03T01:21:09.929Z,1005.17
2017-02-03T01:22:09.864Z,1005.15
2017-02-03T01:23:09.803Z,1005.15
2017-02-03T01:24:09.739Z,1005.08
2017-02-03T01:25:09.677Z,1005.04
2017-02-03T01:26:09.613Z,1005.06
2017-02-03T01:27:09.551Z,1005.05
2017-02-03T01:28:09.487Z,1005.09
2017-02-03T01:29:09.426Z,1005.09
2017-02-03T01:30:09.363Z,1005.07
2017-02-03T01:31:09.301Z,1005.07
2017-02-03T01:32:09.237Z,1005.07
2017-02-03T01:33:09.175Z,1005.1
2017-02-03T01:34:09.111Z,1005.09
2017-02-03T01:35:09.049Z,1005.07
2017-02-03T01:36:08.986Z,1005.06
2017-02-03T01:37:08.924Z,1005.08
2017-02-03T01:38:08.861Z,1005.03
2017-02-03T01:39:08.798Z,1005.02
2017-02-03T01:40:09.038Z,1005.04
2017-02-03T01:41:08.673Z,1005.02
2017-02-03T01:42:08.609Z,1004.96
2017-02-03T01:43:08.582Z,1004.94
2017-02-03T01:44:08.485Z,1004.97
2017-02-03T01:45:08.425Z,1004.94
2017-02-03T01:46:08.363Z,1004.91
2017-02-03T01:47:08.296Z,1004.91
2017-02-03T01:48:08.234Z,1004.87
2017-02-03T01:49:08.171Z,1004.85
2017-02-03T01:50:08.111Z,1004.9
2017-02-03T01:51:08.248Z,1004.86
2017-02-03T01:52:07.984Z,1004.81
2017-02-03T01:53:07.919Z,1004.82
2017-02-03T01:54:07.857Z,1004.83
2017-02-03T01:55:07.794Z,1004.8
2017-02-03T01:56:07.730Z,1004.79
2017-02-03T01:57:07.670Z,1004.74
2017-02-03T01:58:07.629Z,1004.7
2017-02-03T01:59:07.542Z,1004.72
2017-02-03T02:00:07.482Z,1004.69
2017-02-03T02:01:07.417Z,1004.73
2017-02-03T02:02:07.357Z,1004.74
2017-02-03T02:03:07.294Z,1004.77
2017-02-03T02:04:07.229Z,1004.79
2017-02-03T02:05:07.167Z,1004.79
2017-02-03T02:06:07.104Z,1004.77
2017-02-03T02:07:07.041Z,1004.81
2017-02-03T02:08:06.980Z,1004.81
2017-02-03T02:09:06.918Z,1004.73
2017-02-03T02:10:06.854Z,1004.7
2017-02-03T02:11:06.792Z,1004.66
2017-02-03T02:12:06.729Z,1004.63
2017-02-03T02:13:06.666Z,1004.63
2017-02-03T02:14:06.604Z,1004.6
2017-02-03T02:15:06.541Z,1004.58
2017-02-03T02:16:06.478Z,1004.52
2017-02-03T02:17:06.415Z,1004.45
2017-02-03T02:18:06.350Z,1004.43
2017-02-03T02:19:06.290Z,1004.44
2017-02-03T02:20:06.226Z,1004.4
2017-02-03T02:21:06.162Z,1004.31
2017-02-03T02:22:06.101Z,1004.29
2017-02-03T02:23:06.039Z,1004.25
2017-02-03T02:24:05.975Z,1004.24
2017-02-03T02:25:05.913Z,1004.22
2017-02-03T02:26:05.852Z,1004.28
2017-02-03T02:27:05.788Z,1004.25
2017-02-03T02:28:05.723Z,1004.21
2017-02-03T02:29:05.663Z,1004.19
2017-02-03T02:30:05.599Z,1004.2
2017-02-03T02:31:05.536Z,1004.15
2017-02-03T02:32:05.472Z,1004.16
2017-02-03T02:33:05.410Z,1004.14
2017-02-03T02:34:05.346Z,1004.16
2017-02-03T02:35:05.284Z,1004.19
2017-02-03T02:36:05.223Z,1004.17
2017-02-03T02:37:05.161Z,1004.16
2017-02-03T02:38:05.098Z,1004.14
2017-02-03T02:39:05.035Z,1004.12
2017-02-03T02:40:04.972Z,1004.13
2017-02-03T02:41:04.908Z,1004.15
2017-02-03T02:42:04.848Z,1004.12
2017-02-03T02:43:04.784Z,1004.12
2017-02-03T02:44:04.721Z,1004.11
2017-02-03T02:45:04.657Z,1004.07
2017-02-03T02:46:04.594Z,1004.11
2017-02-03T02:47:04.531Z,1004.08
2017-02-03T02:48:04.470Z,1004.08
2017-02-03T02:49:04.407Z,1004.02
2017-02-03T02:50:04.343Z,1004.02
2017-02-03T02:51:04.279Z,1004.01
2017-02-03T02:52:04.219Z,1004
2017-02-03T02:53:04.155Z,1003.96
2017-02-03T02:54:04.093Z,1003.97
2017-02-03T02:55:04.028Z,1003.91
2017-02-03T02:56:03.968Z,1003.96
2017-02-03T02:57:03.904Z,1003.98
2017-02-03T02:58:03.842Z,1003.98
2017-02-03T02:59:03.779Z,1004.01
2017-02-03T03:00:03.716Z,1004.04
2017-02-03T03:01:03.654Z,1004.05
2017-02-03T03:02:03.591Z,1004.07
2017-02-03T03:03:03.530Z,1004.1
2017-02-03T03:04:03.465Z,1004.12
2017-02-03T03:05:03.402Z,1004.14
2017-02-03T03:06:03.339Z,1004.13
2017-02-03T03:07:03.277Z,1004.17
2017-02-03T03:08:03.215Z,1004.13
2017-02-03T03:09:03.151Z,1004.07
2017-02-03T03:10:03.090Z,1004.07
2017-02-03T03:11:03.030Z,1004.1
2017-02-03T03:12:02.961Z,1004.1
2017-02-03T03:13:02.900Z,1004.14
2017-02-03T03:14:02.837Z,1004.13
2017-02-03T03:15:02.773Z,1004.11
2017-02-03T03:16:02.711Z,1004.12
2017-02-03T03:17:02.649Z,1004.12
2017-02-03T03:18:02.586Z,1004.1
2017-02-03T03:19:02.522Z,1004.07
2017-02-03T03:20:02.461Z,1004
2017-02-03T03:21:02.398Z,1003.96
2017-02-03T03:22:02.337Z,1003.96
2017-02-03T03:23:02.272Z,1003.94
2017-02-03T03:24:02.209Z,1003.96
2017-02-03T03:25:02.178Z,1003.96
2017-02-03T03:26:02.084Z,1003.95
2017-02-03T03:27:02.021Z,1003.96
2017-02-03T03:28:01.958Z,1003.92
2017-02-03T03:29:01.901Z,1003.96
2017-02-03T03:30:01.833Z,1003.9
2017-02-03T03:31:01.771Z,1003.85
2017-02-03T03:32:01.708Z,1003.87
2017-02-03T03:33:01.645Z,1003.8
2017-02-03T03:34:01.582Z,1003.77
2017-02-03T03:35:01.522Z,1003.74
2017-02-03T03:36:01.460Z,1003.78
2017-02-03T03:37:01.395Z,1003.74
2017-02-03T03:38:01.332Z,1003.74
2017-02-03T03:39:01.268Z,1003.69
2017-02-03T03:40:01.206Z,1003.68
2017-02-03T03:41:01.143Z,1003.69
2017-02-03T03:42:01.080Z,1003.63
2017-02-03T03:43:01.020Z,1003.69
2017-02-03T03:44:00.955Z,1003.7
2017-02-03T03:45:00.891Z,1003.79
2017-02-03T03:46:00.829Z,1003.83
2017-02-03T03:47:00.767Z,1003.74
2017-02-03T03:48:00.704Z,1003.79
2017-02-03T03:49:00.641Z,1003.79
2017-02-03T03:50:00.579Z,1003.82
2017-02-03T03:51:00.516Z,1003.81
2017-02-03T03:52:00.454Z,1003.72
2017-02-03T03:53:00.390Z,1003.7
2017-02-03T03:54:00.328Z,1003.7
2017-02-03T03:55:00.265Z,1003.68
2017-02-03T03:56:00.202Z,1003.68
2017-02-03T03:57:00.138Z,1003.69
2017-02-03T03:58:00.075Z,1003.63
2017-02-03T03:59:00.015Z,1003.62
2017-02-03T03:59:59.951Z,1003.62
2017-02-03T04:00:59.888Z,1003.6
2017-02-03T04:01:59.826Z,1003.59
2017-02-03T04:02:59.763Z,1003.55
2017-02-03T04:03:59.701Z,1003.55
2017-02-03T04:04:59.638Z,1003.55
2017-02-03T04:05:59.575Z,1003.5
2017-02-03T04:06:59.511Z,1003.48
2017-02-03T04:07:59.449Z,1003.49
2017-02-03T04:08:59.386Z,1003.48
2017-02-03T04:09:59.325Z,1003.55
2017-02-03T04:10:59.263Z,1003.5
2017-02-03T04:11:59.200Z,1003.55
2017-02-03T04:12:59.136Z,1003.51
2017-02-03T04:13:59.073Z,1003.49
2017-02-03T04:14:59.010Z,1003.47
2017-02-03T04:15:58.948Z,1003.47
2017-02-03T04:16:58.886Z,1003.5
2017-02-03T04:17:58.823Z,1003.56
2017-02-03T04:18:58.760Z,1003.6
2017-02-03T04:19:58.697Z,1003.59
2017-02-03T04:20:58.635Z,1003.56
2017-02-03T04:21:58.571Z,1003.54
2017-02-03T04:22:58.509Z,1003.5
2017-02-03T04:23:58.446Z,1003.52
2017-02-03T04:24:58.383Z,1003.57
2017-02-03T04:25:58.356Z,1003.62
2017-02-03T04:26:58.257Z,1003.61
2017-02-03T04:27:58.195Z,1003.57
2017-02-03T04:28:58.131Z,1003.53
2017-02-03T04:29:58.103Z,1003.52
2017-02-03T04:30:58.006Z,1003.56
2017-02-03T04:31:57.943Z,1003.67
2017-02-03T04:32:57.881Z,1003.69
2017-02-03T04:33:57.818Z,1003.61
2017-02-03T04:34:57.756Z,1003.52
2017-02-03T04:35:57.691Z,1003.52
2017-02-03T04:36:57.630Z,1003.53
2017-02-03T04:37:57.567Z,1003.49
2017-02-03T04:38:57.505Z,1003.48
2017-02-03T04:39:57.442Z,1003.4
2017-02-03T04:40:57.379Z,1003.4
2017-02-03T04:41:57.315Z,1003.43
2017-02-03T04:42:57.252Z,1003.41
2017-02-03T04:43:57.190Z,1003.42
2017-02-03T04:44:57.129Z,1003.42
2017-02-03T04:45:57.065Z,1003.44
2017-02-03T04:46:57.002Z,1003.42
2017-02-03T04:47:56.938Z,1003.42
2017-02-03T04:48:56.875Z,1003.45
2017-02-03T04:49:56.814Z,1003.44
2017-02-03T04:50:56.751Z,1003.42
2017-02-03T04:51:56.687Z,1003.47
2017-02-03T04:52:56.625Z,1003.45
2017-02-03T04:53:56.562Z,1003.42
2017-02-03T04:54:56.499Z,1003.43
2017-02-03T04:55:56.436Z,1003.39
2017-02-03T04:56:56.373Z,1003.38
2017-02-03T04:57:56.311Z,1003.36
2017-02-03T04:58:56.248Z,1003.33
2017-02-03T04:59:56.185Z,1003.33
2017-02-03T05:00:56.123Z,1003.33
2017-02-03T05:01:56.060Z,1003.81
2017-02-03T05:02:55.997Z,1003.93
2017-02-03T05:03:55.936Z,1003.54
2017-02-03T05:04:55.871Z,1003.53
2017-02-03T05:05:55.808Z,1003.5
2017-02-03T05:06:55.746Z,1003.5
2017-02-03T05:07:55.685Z,1003.48
2017-02-03T05:08:55.621Z,1003.45
2017-02-03T05:09:55.557Z,1003.47
2017-02-03T05:10:55.495Z,1003.47
2017-02-03T05:11:55.433Z,1003.44
2017-02-03T05:12:55.369Z,1003.47
2017-02-03T05:13:55.306Z,1003.41
2017-02-03T05:14:55.242Z,1003.42
2017-02-03T05:15:55.181Z,1003.34
2017-02-03T05:16:55.118Z,1003.34
2017-02-03T05:17:55.055Z,1003.35
2017-02-03T05:18:54.992Z,1003.32
2017-02-03T05:19:54.928Z,1003.33
2017-02-03T05:20:54.865Z,1003.34
2017-02-03T05:21:54.802Z,1003.31
2017-02-03T05:22:54.741Z,1003.37
2017-02-03T05:23:54.677Z,1003.34
2017-02-03T05:24:54.615Z,1003.37
2017-02-03T05:25:54.552Z,1003.36
2017-02-03T05:26:54.488Z,1003.37
2017-02-03T05:27:54.425Z,1003.35
2017-02-03T05:28:54.362Z,1003.31
2017-02-03T05:29:54.300Z,1003.31
2017-02-03T05:30:54.239Z,1003.3
2017-02-03T05:31:54.175Z,1003.31
2017-02-03T05:32:54.111Z,1003.26
2017-02-03T05:33:54.050Z,1003.28
2017-02-03T05:34:53.988Z,1003.3
2017-02-03T05:35:53.922Z,1003.32
2017-02-03T05:36:53.860Z,1003.33
2017-02-03T05:37:53.795Z,1003.31
2017-02-03T05:38:53.733Z,1003.33
2017-02-03T05:39:53.671Z,1003.3
2017-02-03T05:40:53.610Z,1003.29
2017-02-03T05:41:53.544Z,1003.25
2017-02-03T05:42:53.481Z,1003.27
2017-02-03T05:43:53.417Z,1003.13
2017-02-03T05:44:53.356Z,1003.17
2017-02-03T05:45:53.293Z,1003.22
2017-02-03T05:46:53.230Z,1003.26
2017-02-03T05:47:53.167Z,1003.23
2017-02-03T05:48:53.104Z,1003.19
2017-02-03T05:49:53.040Z,1003.13
2017-02-03T05:50:52.979Z,1003.16
2017-02-03T05:51:52.917Z,1003.13
2017-02-03T05:52:52.854Z,1003.08
2017-02-03T05:53:52.789Z,1003.13
2017-02-03T05:54:52.726Z,1003.12
2017-02-03T05:55:52.663Z,1003.14
2017-02-03T05:56:52.600Z,1003.18
2017-02-03T05:57:52.538Z,1003.15
2017-02-03T05:58:52.476Z,1003.16
2017-02-03T05:59:52.410Z,1003.13
2017-02-03T06:00:52.348Z,1003.17
2017-02-03T06:01:52.285Z,1003.17
2017-02-03T06:02:52.222Z,1003.15
2017-02-03T06:03:52.159Z,1003.15
2017-02-03T06:04:52.096Z,1003.14
2017-02-03T06:05:52.033Z,1003.16
2017-02-03T06:06:51.968Z,1003.15
2017-02-03T06:07:51.905Z,1003.16
2017-02-03T06:08:51.842Z,1003.16
2017-02-03T06:09:51.781Z,1003.15
2017-02-03T06:10:51.717Z,1003.16
2017-02-03T06:11:51.653Z,1003.19
2017-02-03T06:12:51.591Z,1003.16
2017-02-03T06:13:51.527Z,1003.17
2017-02-03T06:14:51.462Z,1003.21
2017-02-03T06:15:51.401Z,1003.16
2017-02-03T06:16:51.339Z,1003.2
2017-02-03T06:17:51.276Z,1003.15
2017-02-03T06:18:51.211Z,1003.14
2017-02-03T06:19:51.148Z,1003.13
2017-02-03T06:20:51.084Z,1003.16
2017-02-03T06:21:51.022Z,1003.2
2017-02-03T06:22:50.959Z,1003.17
2017-02-03T06:23:50.896Z,1003.19
2017-02-03T06:24:50.833Z,1003.21
2017-02-03T06:25:50.769Z,1003.2
2017-02-03T06:26:50.706Z,1003.19
2017-02-03T06:27:50.643Z,1003.15
2017-02-03T06:28:50.579Z,1003.18
2017-02-03T06:29:50.552Z,1003.2
2017-02-03T06:30:50.453Z,1003.2
2017-02-03T06:31:50.391Z,1003.21
2017-02-03T06:32:50.327Z,1003.18
2017-02-03T06:33:50.267Z,1003.2
2017-02-03T06:34:50.202Z,1003.19
2017-02-03T06:35:50.138Z,1003.2
2017-02-03T06:36:50.075Z,1003.2
2017-02-03T06:37:50.011Z,1003.21
2017-02-03T06:38:49.948Z,1003.21
2017-02-03T06:39:49.891Z,1003.2
2017-02-03T06:40:49.823Z,1003.15
2017-02-03T06:41:49.758Z,1003.16
2017-02-03T06:42:49.696Z,1003.11
2017-02-03T06:43:49.634Z,1003.07
2017-02-03T06:44:49.570Z,1003.09
2017-02-03T06:45:49.507Z,1003.09
2017-02-03T06:46:49.444Z,1003.13
2017-02-03T06:47:49.378Z,1003.1
2017-02-03T06:48:49.318Z,1003.12
2017-02-03T06:49:49.255Z,1003.12
2017-02-03T06:50:49.189Z,1003.15
2017-02-03T06:51:49.127Z,1003.16
2017-02-03T06:52:49.063Z,1003.15
2017-02-03T06:53:49.000Z,1003.17
2017-02-03T06:54:48.974Z,1003.18
2017-02-03T06:55:48.874Z,1003.19
2017-02-03T06:56:48.811Z,1003.18
2017-02-03T06:57:48.748Z,1003.17
2017-02-03T06:58:48.685Z,1003.15
2017-02-03T06:59:48.621Z,1003.16
2017-02-03T07:00:48.557Z,1003.15
2017-02-03T07:01:48.494Z,1003.12
2017-02-03T07:02:48.432Z,1003.1
2017-02-03T07:03:48.368Z,1003.14
2017-02-03T07:04:48.306Z,1003.11
2017-02-03T07:05:48.241Z,1003.09
2017-02-03T07:06:48.179Z,1003.08
2017-02-03T07:07:48.116Z,1003.05
2017-02-03T07:08:48.054Z,1003.09
2017-02-03T07:09:47.989Z,1003.06
2017-02-03T07:10:47.927Z,1003.03
2017-02-03T07:11:47.862Z,1003.03
2017-02-03T07:12:47.799Z,1003.01
2017-02-03T07:13:47.737Z,1002.97
2017-02-03T07:14:47.673Z,1002.98
2017-02-03T07:15:47.610Z,1002.95
2017-02-03T07:16:47.545Z,1002.93
2017-02-03T07:17:47.483Z,1002.9
2017-02-03T07:18:47.419Z,1002.88
2017-02-03T07:19:47.357Z,1002.9
2017-02-03T07:20:47.295Z,1002.91
2017-02-03T07:21:47.231Z,1002.87
2017-02-03T07:22:47.169Z,1002.89
2017-02-03T07:23:47.105Z,1002.92
2017-02-03T07:24:47.041Z,1002.91
2017-02-03T07:25:46.978Z,1002.87
2017-02-03T07:26:46.916Z,1002.81
2017-02-03T07:27:46.852Z,1002.84
2017-02-03T07:28:46.789Z,1002.89
2017-02-03T07:29:46.726Z,1002.91
2017-02-03T07:30:46.662Z,1002.86
2017-02-03T07:31:46.598Z,1002.86
2017-02-03T07:32:46.536Z,1002.82
2017-02-03T07:33:46.473Z,1002.81
2017-02-03T07:34:46.408Z,1002.8
2017-02-03T07:35:46.345Z,1002.81
2017-02-03T07:36:46.283Z,1002.77
2017-02-03T07:37:46.218Z,1002.74
2017-02-03T07:38:46.186Z,1002.78
2017-02-03T07:39:46.093Z,1002.78
2017-02-03T07:40:46.029Z,1002.73
2017-02-03T07:41:45.964Z,1002.73
2017-02-03T07:42:45.904Z,1002.69
2017-02-03T07:43:45.839Z,1002.73
2017-02-03T07:44:45.776Z,1002.72
2017-02-03T07:45:45.713Z,1002.73
2017-02-03T07:46:45.650Z,1002.72
2017-02-03T07:47:45.585Z,1002.72
2017-02-03T07:48:45.523Z,1002.68
2017-02-03T07:49:45.458Z,1002.64
2017-02-03T07:50:45.396Z,1002.61
2017-02-03T07:51:45.334Z,1002.59
2017-02-03T07:52:45.269Z,1002.67
2017-02-03T07:53:45.206Z,1002.63
2017-02-03T07:54:45.144Z,1002.63
2017-02-03T07:55:45.078Z,1002.65
2017-02-03T07:56:45.016Z,1002.66
2017-02-03T07:57:44.954Z,1002.62
2017-02-03T07:58:44.891Z,1002.64
2017-02-03T07:59:44.827Z,1002.61
2017-02-03T08:00:44.765Z,1002.62
2017-02-03T08:01:44.699Z,1002.6
2017-02-03T08:02:44.637Z,1002.62
2017-02-03T08:03:44.575Z,1002.63
2017-02-03T08:04:44.510Z,1002.64
2017-02-03T08:05:44.446Z,1002.64
2017-02-03T08:06:44.383Z,1002.6
2017-02-03T08:07:44.322Z,1002.54
2017-02-03T08:08:44.256Z,1002.5
2017-02-03T08:09:44.194Z,1002.5
2017-02-03T08:10:44.134Z,1002.46
2017-02-03T08:11:44.067Z,1002.45
2017-02-03T08:12:44.003Z,1002.43
2017-02-03T08:13:43.941Z,1002.46
2017-02-03T08:14:43.877Z,1002.46
2017-02-03T08:15:43.814Z,1002.5
2017-02-03T08:16:43.752Z,1002.52
2017-02-03T08:17:43.697Z,1002.52
2017-02-03T08:18:43.625Z,1002.51
2017-02-03T08:19:43.561Z,1002.47
2017-02-03T08:20:43.498Z,1002.51
2017-02-03T08:21:43.446Z,1002.47
2017-02-03T08:22:43.372Z,1002.48
2017-02-03T08:23:43.310Z,1002.51
2017-02-03T08:24:43.245Z,1002.51
2017-02-03T08:25:43.180Z,1002.53
2017-02-03T08:26:43.126Z,1002.57
2017-02-03T08:27:43.066Z,1002.51
2017-02-03T08:28:42.996Z,1002.45
2017-02-03T08:29:42.937Z,1002.46
2017-02-03T08:30:42.876Z,1002.44
2017-02-03T08:31:42.803Z,1002.47
2017-02-03T08:32:42.739Z,1002.49
2017-02-03T08:33:42.675Z,1002.46
2017-02-03T08:34:42.612Z,1002.54
2017-02-03T08:35:42.549Z,1002.54
2017-02-03T08:36:42.486Z,1002.56
2017-02-03T08:37:42.422Z,1002.59
2017-02-03T08:38:42.367Z,1002.58
2017-02-03T08:39:42.305Z,1002.6
2017-02-03T08:40:42.233Z,1002.63
2017-02-03T08:41:42.170Z,1002.63
2017-02-03T08:42:42.107Z,1002.61
2017-02-03T08:43:42.056Z,1002.66
2017-02-03T08:44:41.982Z,1002.67
2017-02-03T08:45:41.918Z,1002.74
2017-02-03T08:46:41.854Z,1002.71
2017-02-03T08:47:41.789Z,1002.73
2017-02-03T08:48:41.727Z,1002.77
2017-02-03T08:49:41.665Z,1002.78
2017-02-03T08:50:41.612Z,1002.81
2017-02-03T08:51:41.538Z,1002.81
2017-02-03T08:52:41.484Z,1002.76
2017-02-03T08:53:41.421Z,1002.74
2017-02-03T08:54:41.349Z,1002.66
2017-02-03T08:55:41.285Z,1002.71
2017-02-03T08:56:41.224Z,1002.72
2017-02-03T08:57:41.165Z,1002.7
2017-02-03T08:58:41.099Z,1002.75
2017-02-03T08:59:41.043Z,1002.74
2017-02-03T09:00:41.281Z,1002.69
2017-02-03T09:01:40.908Z,1002.7
2017-02-03T09:02:40.854Z,1002.66
2017-02-03T09:03:40.823Z,1002.67
2017-02-03T09:04:40.719Z,1002.65
2017-02-03T09:05:40.655Z,1002.68
2017-02-03T09:06:40.602Z,1002.7
2017-02-03T09:07:40.528Z,1002.73
2017-02-03T09:08:40.465Z,1002.7
2017-02-03T09:09:40.403Z,1002.68
2017-02-03T09:10:40.338Z,1002.69
2017-02-03T09:11:40.279Z,1002.73
2017-02-03T09:12:40.215Z,1002.77
2017-02-03T09:13:40.152Z,1002.79
2017-02-03T09:14:40.088Z,1002.8
2017-02-03T09:15:40.025Z,1002.85
2017-02-03T09:16:39.961Z,1002.85
2017-02-03T09:17:39.899Z,1002.82
2017-02-03T09:18:39.836Z,1002.84
2017-02-03T09:19:39.782Z,1002.96
2017-02-03T09:20:39.720Z,1002.95
2017-02-03T09:21:39.646Z,1002.94
2017-02-03T09:22:39.584Z,1002.91
2017-02-03T09:23:39.543Z,1002.93
2017-02-03T09:24:39.458Z,1002.94
2017-02-03T09:25:39.395Z,1002.9
2017-02-03T09:26:39.332Z,1002.91
2017-02-03T09:27:39.268Z,1002.86
2017-02-03T09:28:39.205Z,1002.91
2017-02-03T09:29:39.149Z,1002.86
2017-02-03T09:30:39.080Z,1002.92
2017-02-03T09:31:39.016Z,1002.96
2017-02-03T09:32:38.955Z,1002.96
2017-02-03T09:33:38.893Z,1002.93
2017-02-03T09:34:38.982Z,1002.9
2017-02-03T09:35:38.766Z,1002.88
2017-02-03T09:36:38.723Z,1002.89
2017-02-03T09:37:38.940Z,1002.91
2017-02-03T09:38:38.599Z,1002.87
2017-02-03T09:39:38.522Z,1002.84
2017-02-03T09:40:38.451Z,1002.84
2017-02-03T09:41:38.403Z,1002.83
2017-02-03T09:42:38.350Z,1002.89
2017-02-03T09:43:38.266Z,1002.89
2017-02-03T09:44:38.262Z,1002.91
2017-02-03T09:45:38.164Z,1002.97
2017-02-03T09:46:38.072Z,1002.97
2017-02-03T09:47:38.018Z,1002.96
2017-02-03T09:48:37.947Z,1002.89
2017-02-03T09:49:37.892Z,1002.92
2017-02-03T09:50:37.831Z,1002.95
2017-02-03T09:51:37.767Z,1002.97
2017-02-03T09:52:37.695Z,1002.9
2017-02-03T09:53:37.641Z,1002.9
2017-02-03T09:54:37.570Z,1002.9
2017-02-03T09:55:37.506Z,1002.88
2017-02-03T09:56:37.444Z,1002.87
2017-02-03T09:57:37.380Z,1002.87
2017-02-03T09:58:37.317Z,1002.92
2017-02-03T09:59:37.256Z,1002.92
2017-02-03T10:00:37.442Z,1002.93
2017-02-03T10:01:37.128Z,1002.95
2017-02-03T10:02:37.065Z,1002.92
2017-02-03T10:03:37.002Z,1002.95
2017-02-03T10:04:36.949Z,1002.98
2017-02-03T10:05:37.276Z,1002.98
2017-02-03T10:06:36.814Z,1002.95
2017-02-03T10:07:36.752Z,1002.93
2017-02-03T10:08:36.698Z,1002.89
2017-02-03T10:09:36.655Z,1002.87
2017-02-03T10:10:36.630Z,1002.89
2017-02-03T10:11:36.514Z,1002.89
2017-02-03T10:12:36.510Z,1002.92
2017-02-03T10:13:36.444Z,1002.92
2017-02-03T10:14:36.343Z,1002.94
2017-02-03T10:15:36.439Z,1002.9
2017-02-03T10:16:36.288Z,1002.85
2017-02-03T10:17:36.122Z,1002.84
2017-02-03T10:18:36.060Z,1002.83
2017-02-03T10:19:35.996Z,1002.84
2017-02-03T10:20:35.933Z,1002.78
2017-02-03T10:21:35.879Z,1002.8
2017-02-03T10:22:35.808Z,1002.87
2017-02-03T10:23:35.747Z,1002.8
2017-02-03T10:24:35.685Z,1002.79
2017-02-03T10:25:35.619Z,1002.81
2017-02-03T10:26:35.555Z,1002.84
2017-02-03T10:27:35.501Z,1002.82
2017-02-03T10:28:35.432Z,1002.83
2017-02-03T10:29:35.367Z,1002.82
2017-02-03T10:30:35.305Z,1002.85
2017-02-03T10:31:35.242Z,1002.83
2017-02-03T10:32:35.181Z,1002.81
2017-02-03T10:33:35.127Z,1002.85
2017-02-03T10:34:35.055Z,1002.84
2017-02-03T10:35:34.990Z,1002.81
2017-02-03T10:36:34.929Z,1002.77
2017-02-03T10:37:34.866Z,1002.79
2017-02-03T10:38:34.803Z,1002.78
2017-02-03T10:39:34.748Z,1002.77
2017-02-03T10:40:34.686Z,1002.8
2017-02-03T10:41:34.615Z,1002.78
2017-02-03T10:42:34.571Z,1002.77
2017-02-03T10:43:34.489Z,1002.79
2017-02-03T10:44:34.426Z,1002.8
2017-02-03T10:45:34.363Z,1002.76
2017-02-03T10:46:34.301Z,1002.73
2017-02-03T10:47:34.238Z,1002.69
2017-02-03T10:48:34.174Z,1002.69
2017-02-03T10:49:34.117Z,1002.69
2017-02-03T10:50:34.050Z,1002.67
2017-02-03T10:51:33.986Z,1002.63
2017-02-03T10:52:33.921Z,1002.61
2017-02-03T10:53:33.859Z,1002.64
2017-02-03T10:54:33.798Z,1002.67
2017-02-03T10:55:33.733Z,1002.62
2017-02-03T10:56:33.672Z,1002.65
2017-02-03T10:57:33.609Z,1002.62
2017-02-03T10:58:33.550Z,1002.65
2017-02-03T10:59:33.485Z,1002.64
2017-02-03T11:00:33.670Z,1002.63
2017-02-03T11:01:33.362Z,1002.64
2017-02-03T11:02:33.297Z,1002.66
2017-02-03T11:03:33.243Z,1002.64
2017-02-03T11:04:33.175Z,1002.68
2017-02-03T11:05:33.107Z,1002.62
2017-02-03T11:06:33.245Z,1002.66
2017-02-03T11:07:32.981Z,1002.61
2017-02-03T11:08:32.918Z,1002.62
2017-02-03T11:09:32.861Z,1002.62
2017-02-03T11:10:32.793Z,1002.55
2017-02-03T11:11:32.730Z,1002.56
2017-02-03T11:12:32.672Z,1002.53
2017-02-03T11:13:32.604Z,1002.47
2017-02-03T11:14:32.543Z,1002.54
2017-02-03T11:15:32.480Z,1002.52
2017-02-03T11:16:32.415Z,1002.53
2017-02-03T11:17:32.351Z,1002.51
2017-02-03T11:18:32.290Z,1002.49
2017-02-03T11:19:32.228Z,1002.48
2017-02-03T11:20:32.165Z,1002.44
2017-02-03T11:21:32.102Z,1002.49
2017-02-03T11:22:32.039Z,1002.49
2017-02-03T11:23:31.978Z,1002.46
2017-02-03T11:24:31.915Z,1002.44
2017-02-03T11:25:32.100Z,1002.43
2017-02-03T11:26:31.788Z,1002.39
2017-02-03T11:27:31.725Z,1002.38
2017-02-03T11:28:31.661Z,1002.36
2017-02-03T11:29:31.599Z,1002.4
2017-02-03T11:30:31.536Z,1002.35
2017-02-03T11:31:31.474Z,1002.41
2017-02-03T11:32:31.410Z,1002.35
2017-02-03T11:33:31.348Z,1002.36
2017-02-03T11:34:31.285Z,1002.33
2017-02-03T11:35:31.322Z,1002.34
2017-02-03T11:36:31.160Z,1002.3
2017-02-03T11:37:31.097Z,1002.27
2017-02-03T11:38:31.038Z,1002.27
2017-02-03T11:39:30.969Z,1002.26
2017-02-03T11:40:30.908Z,1002.28
2017-02-03T11:41:30.845Z,1002.25
2017-02-03T11:42:30.783Z,1002.23
2017-02-03T11:43:30.723Z,1002.25
2017-02-03T11:44:30.658Z,1002.27
2017-02-03T11:45:30.594Z,1002.2
2017-02-03T11:46:30.531Z,1002.2
2017-02-03T11:47:30.469Z,1002.23
2017-02-03T11:48:30.405Z,1002.2
2017-02-03T11:49:30.362Z,1002.14
2017-02-03T11:50:30.629Z,1002.17
2017-02-03T11:51:30.217Z,1002.18
2017-02-03T11:52:30.157Z,1002.24
2017-02-03T11:53:30.093Z,1002.22
2017-02-03T11:54:30.028Z,1002.22
2017-02-03T11:55:30.666Z,1002.18
2017-02-03T11:56:29.901Z,1002.17
2017-02-03T11:57:29.842Z,1002.15
2017-02-03T11:58:29.777Z,1002.14
2017-02-03T11:59:29.714Z,1002.15
2017-02-03T12:00:29.652Z,1002.17
2017-02-03T12:01:29.588Z,1002.22
2017-02-03T12:02:29.528Z,1002.17
2017-02-03T12:03:29.813Z,1002.2
2017-02-03T12:04:29.400Z,1002.17
2017-02-03T12:05:29.338Z,1002.16
2017-02-03T12:06:29.275Z,1002.13
2017-02-03T12:07:29.213Z,1002.17
2017-02-03T12:08:29.149Z,1002.09
2017-02-03T12:09:29.085Z,1002.09
2017-02-03T12:10:29.024Z,1002.06
2017-02-03T12:11:28.961Z,1002.09
2017-02-03T12:12:28.897Z,1002.09
2017-02-03T12:13:28.839Z,1002.1
2017-02-03T12:14:28.772Z,1002.14
2017-02-03T12:15:28.723Z,1002.09
2017-02-03T12:16:28.647Z,1002.09
2017-02-03T12:17:28.584Z,1002.1
2017-02-03T12:18:28.522Z,1002.04
2017-02-03T12:19:28.460Z,1002.02
2017-02-03T12:20:28.395Z,1001.99
2017-02-03T12:21:28.335Z,1002.09
2017-02-03T12:22:28.271Z,1002.1
2017-02-03T12:23:28.207Z,1002.17
2017-02-03T12:24:28.148Z,1002.2
2017-02-03T12:25:28.084Z,1002.11
2017-02-03T12:26:28.019Z,1002.11
2017-02-03T12:27:27.958Z,1002.09
2017-02-03T12:28:27.895Z,1002.13
2017-02-03T12:29:28.133Z,1002.09
2017-02-03T12:30:27.768Z,1002.08
2017-02-03T12:31:27.706Z,1002
2017-02-03T12:32:27.645Z,1002
2017-02-03T12:33:27.581Z,1002.01
2017-02-03T12:34:27.517Z,1002.02
2017-02-03T12:35:27.464Z,1002.03
2017-02-03T12:36:27.394Z,1001.92
2017-02-03T12:37:27.332Z,1001.95
2017-02-03T12:38:27.269Z,1001.92
2017-02-03T12:39:27.206Z,1001.99
2017-02-03T12:40:27.445Z,1001.88
2017-02-03T12:41:27.081Z,1001.91
2017-02-03T12:42:27.030Z,1001.86
2017-02-03T12:43:26.958Z,1001.87
2017-02-03T12:44:26.917Z,1001.85
2017-02-03T12:45:27.081Z,1001.84
2017-02-03T12:46:26.785Z,1001.85
2017-02-03T12:47:26.708Z,1001.8
2017-02-03T12:48:26.647Z,1001.86
2017-02-03T12:49:26.583Z,1001.78
2017-02-03T12:50:26.519Z,1001.76
2017-02-03T12:51:26.457Z,1001.84
2017-02-03T12:52:26.394Z,1001.87
2017-02-03T12:53:26.331Z,1001.95
2017-02-03T12:54:26.274Z,1001.96
2017-02-03T12:55:26.557Z,1001.99
2017-02-03T12:56:26.145Z,1001.95
2017-02-03T12:57:26.083Z,1001.97
2017-02-03T12:58:26.027Z,1001.97
2017-02-03T12:59:25.955Z,1001.92
2017-02-03T13:00:26.194Z,1001.97
2017-02-03T13:01:25.838Z,1001.97
2017-02-03T13:02:25.771Z,1001.94
2017-02-03T13:03:25.707Z,1001.93
2017-02-03T13:04:25.649Z,1001.94
2017-02-03T13:05:25.583Z,1001.92
2017-02-03T13:06:25.573Z,1001.89
2017-02-03T13:07:25.458Z,1001.88
2017-02-03T13:08:25.396Z,1001.86